Sheep Springs, NM (87364)

1:57 PM MDT on August 30, 2015 (GMT -0600)
Window Rock | | Change Station
CLOSE
Current Station
Airport
Location: Window Rock,
Elevation: 6742 ft
Nearby Weather Stations

Elev 6742 ft 35.66 °N, 109.06 °W | Updated 4 minutes ago

Thunderstorm
Thunderstorm
74 °F
Feels Like 74 °F
N
8
Wind Variable Wind from NNE

Today
High -- | Low -- °F
--% Chance of Precip.
Yesterday
High -- | Low -- °F
Precip. -- in
6:44 AM 7:45 PM
Full, 98% visible
Pressure 29.91 in
Visibility 10.0 miles
Clouds Few 4300 ft
Mostly Cloudy 7500 ft
Overcast 12000 ft
Dew Point 56 °F
Humidity 53%
Rainfall 0.08 in
Snow Depth Not available.
UV 3 out of 12
Pollen 8.50 out of 12
Air Quality Not available.
Flu Activity Not available.
METAR KRQE 301953Z AUTO 02007KT 10SM -RA FEW043 BKN075 OVC120 23/13 A3025 RMK AO2 SLP127 P0001 T02330133 TSNO
Pressure 29.91 in
Visibility 10.0 miles
Clouds Few 4300 ft
Mostly Cloudy 7500 ft
Overcast 12000 ft
Dew Point 56 °F
Humidity 53%
Rainfall 0.08 in
Snow Depth Not available.
UV 3 out of 12
Pollen 8.50 out of 12
Air Quality Not available.
Flu Activity Not available.
METAR KRQE 301953Z AUTO 02007KT 10SM -RA FEW043 BKN075 OVC120 23/13 A3025 RMK AO2 SLP127 P0001 T02330133 TSNO

10-Day Weather Forecast

×

Almanac

Astronomy

Aug. 30, 2015 Rise Set
Actual Time
Civil Twilight
Nautical Twilight
Astronomical Twilight
Moon
Length of Visible Light
Length of Day
Tomorrow will be .
, % of the Moon is Illuminated

Today's Extremes

State Highs State Lows

Community

WunderPhotos

Upload Photos

1,851,041 photos uploaded!

WunderBlogs® & News

Nearby

Air Quality

  Air Quality AQ Index Pollutant
Not available.

Snow Depth

Station Depth Elevation

Earthquake Activity

City Distance Mag. Time & Date
Minimum magnitude displayed is 2.5.

Coastal Water Temperatures

Place Temperature

Stations

Nearby Weather Stations

Station Location Temp. Windchill Dew Point Humidity Wind Precip. Elev Updated Type